Christmas Island Airport
YPXM : now visible

Airfield :











YOU CAN JOIN US ON...

 
LOGIN :

Register | Disclaimer

   EN    FR    IT 

 









Legend :    VFR   Marginal VFR   IFR   Intensive IFR   Very Intensive IFR
Visi :
Ceiling :
>= 8 km
>= 3000ft
5 to 8 km
1000 to 3000 ft
1500m to 5 km
500 to 1000 ft
800 to 1500m
200 to 500 ft
< 800m
< 200 ft
Symbols :   Thunderstorms  Fog  Heavy snow  Heavy precipitations  Wind > 20 kt






- Airport Elevation : 916 ft
- IATA code : XCH


YPXM - Christmas Island

CURRENT METAR :
  • 231500Z AUTO 29006G16KT 9999 // SCT010 BKN017 26/24 Q1011

EXPIRED METARs :
  • 231430Z AUTO 29007KT 9999 // SCT008 BKN012 BKN019 26/24 Q1011
  • 231400Z AUTO 30006KT 9999 // SCT008 BKN013 26/24 Q1011
  • 231330Z AUTO 29005KT 9999 // BKN010 25/24 Q1011 RF00/0/006/8
  • 231300Z AUTO 31006KT 9999 // BKN008 BKN013 BKN018 25/24 Q1010
  • 231230Z AUTO 30006KT 9999 // SCT005 BKN010 BKN015 25/24 Q1010

TAF TAF YPXM
Valid from the 23 at 12:00 until the 24 at 12:00 UTC


231057Z 2312/2412 30010KT 9999 -SHRA SCT008 BKN012
FM240000 27010KT 9999 -SHRA SCT012 BKN018
TEMPO 2312/2400 3000 SHRA BKN010
PROB40
TEMPO 2312/2323 VRB20G35KT 1000 TSRA BKN005 SCT015CB



MET'MAP, your aeronautical weather chart ! - Copyright ORBIFLY December 2007 - Disclaimer

ORBIFLY MET'MAP TEAM :

Programming & Development : Alexandra Zaïnal
Concept & original design : Baudouin d'Aumeries
Assistance for programming : Marc-Olivier Méhu
Technical & hardware support : Manuel Goepfert

Contact : metmap@orbifly.com




SOURCES & CREDITS :

   NOAA       Earth
Advisory